Time;durP1;ratioP1;P1;durP2;ratioP2;P2;SDS_P1;SDS_P2;PMS_P1;PMS_P2;Temp;Humidity;BMP_temperature;BMP_pressure;BME280_temperature;BME280_humidity;BME280_pressure;Samples;Min_cycle;Max_cycle;Signal;HPM_P1;HPM_P2
2024/01/20 00:02:03;;;;;;;12.30;3.72;;;1.70;99.90;;;;;;5061108;28;20044;-64
2024/01/20 00:04:29;;;;;;;11.95;3.78;;;2.30;99.90;;;;;;5042613;28;20697;-65
2024/01/20 00:06:55;;;;;;;14.02;3.63;;;1.40;99.90;;;;;;5060449;28;20076;-65
2024/01/20 00:09:21;;;;;;;14.15;3.90;;;1.40;99.90;;;;;;5058793;28;20724;-65
2024/01/20 00:11:46;;;;;;;9.98;3.88;;;1.40;99.90;;;;;;5045232;28;20044;-65
2024/01/20 00:14:12;;;;;;;11.35;3.90;;;1.40;99.90;;;;;;5058253;28;20044;-65
2024/01/20 00:16:38;;;;;;;11.50;4.22;;;1.40;99.90;;;;;;5058955;28;20120;-65
2024/01/20 00:19:03;;;;;;;15.07;3.70;;;1.30;99.90;;;;;;5061681;28;20509;-64
2024/01/20 00:21:30;;;;;;;14.68;4.28;;;1.50;99.90;;;;;;5059841;28;20493;-64
2024/01/20 00:23:55;;;;;;;12.80;4.30;;;1.30;99.90;;;;;;5058778;28;20048;-64
2024/01/20 00:26:21;;;;;;;12.82;4.72;;;1.30;99.90;;;;;;5058636;28;20059;-65
2024/01/20 00:28:47;;;;;;;9.30;4.50;;;1.30;99.90;;;;;;5058853;28;20068;-65
2024/01/20 00:31:13;;;;;;;13.80;4.95;;;1.30;99.90;;;;;;5059043;28;20755;-64
2024/01/20 00:33:38;;;;;;;15.38;4.60;;;2.30;99.90;;;;;;5058020;28;20090;-65
2024/01/20 00:36:04;;;;;;;14.55;4.88;;;1.20;99.90;;;;;;5061399;28;20110;-65
2024/01/20 00:38:31;;;;;;;16.02;5.75;;;1.20;99.90;;;;;;5058487;28;20092;-64
2024/01/20 00:40:56;;;;;;;10.02;4.93;;;1.20;99.90;;;;;;5043904;28;20040;-65
2024/01/20 00:43:22;;;;;;;15.43;4.88;;;1.20;99.90;;;;;;5059663;28;20071;-65
2024/01/20 00:45:48;;;;;;;13.30;5.50;;;1.20;99.90;;;;;;5042347;28;20040;-65
2024/01/20 00:48:14;;;;;;;11.07;5.15;;;1.20;99.90;;;;;;5059868;28;20032;-65
2024/01/20 00:50:39;;;;;;;12.18;5.10;;;1.20;99.90;;;;;;5042740;28;20489;-65
2024/01/20 00:53:05;;;;;;;11.85;5.07;;;2.20;99.90;;;;;;5062497;28;20139;-65
2024/01/20 00:55:31;;;;;;;14.93;5.78;;;1.10;99.90;;;;;;5063245;28;20556;-64
2024/01/20 00:57:56;;;;;;;12.18;5.43;;;1.20;99.90;;;;;;5044581;28;20172;-64
2024/01/20 01:00:22;;;;;;;13.55;5.00;;;1.10;99.90;;;;;;5044395;28;20048;-64
2024/01/20 01:02:48;;;;;;;17.15;5.95;;;1.10;99.90;;;;;;5058195;28;20080;-64
2024/01/20 01:05:14;;;;;;;17.50;6.43;;;1.10;99.90;;;;;;5062711;28;20045;-64
2024/01/20 01:07:39;;;;;;;14.48;6.40;;;1.10;99.90;;;;;;5044616;28;20051;-64
2024/01/20 01:10:08;;;;;;;18.88;6.38;;;1.10;99.90;;;;;;5060809;28;20033;-64
2024/01/20 01:12:34;;;;;;;17.88;7.03;;;1.10;99.90;;;;;;5060676;28;20076;-64
2024/01/20 01:15:01;;;;;;;14.07;6.07;;;1.10;99.90;;;;;;5060129;28;20060;-64
2024/01/20 01:17:27;;;;;;;14.70;6.03;;;1.30;99.90;;;;;;5090623;28;20048;-64
2024/01/20 01:19:52;;;;;;;16.95;7.15;;;2.10;99.90;;;;;;5045594;28;20052;-65
2024/01/20 01:22:18;;;;;;;18.88;6.47;;;1.10;99.90;;;;;;5044373;28;20136;-64
2024/01/20 01:24:44;;;;;;;12.02;6.32;;;1.20;99.90;;;;;;5060803;28;20060;-64
2024/01/20 01:27:09;;;;;;;15.27;6.72;;;1.20;99.90;;;;;;5043980;28;20040;-64
2024/01/20 01:29:35;;;;;;;13.27;6.45;;;1.10;99.90;;;;;;5042811;28;20051;-64
2024/01/20 01:32:01;;;;;;;18.77;6.93;;;1.10;99.90;;;;;;5059215;28;20079;-64
2024/01/20 01:34:27;;;;;;;18.90;7.93;;;1.80;99.90;;;;;;5057588;28;20522;-65
2024/01/20 01:36:52;;;;;;;21.05;7.45;;;1.30;99.90;;;;;;5057252;28;20052;-64
2024/01/20 01:39:20;;;;;;;14.02;7.18;;;1.10;99.90;;;;;;5058790;28;20320;-64
2024/01/20 01:41:46;;;;;;;17.65;7.63;;;1.10;99.90;;;;;;5042622;28;20533;-64
2024/01/20 01:44:12;;;;;;;16.33;6.97;;;1.10;99.90;;;;;;5059436;28;20062;-65
2024/01/20 01:46:39;;;;;;;20.67;7.43;;;1.10;99.90;;;;;;5060911;28;20044;-65
2024/01/20 01:49:05;;;;;;;16.20;6.88;;;1.10;99.90;;;;;;5043469;28;20049;-64
2024/01/20 01:51:31;;;;;;;15.63;7.28;;;1.10;99.90;;;;;;5059980;28;20052;-65
2024/01/20 01:54:04;;;;;;;14.27;7.50;;;1.10;99.90;;;;;;5060872;28;20040;-64
2024/01/20 01:56:30;;;;;;;17.40;6.85;;;1.90;99.90;;;;;;5092688;28;20156;-64
2024/01/20 01:58:57;;;;;;;19.65;7.50;;;1.10;99.90;;;;;;5060615;28;20079;-64
2024/01/20 02:01:23;;;;;;;17.42;7.50;;;1.10;99.90;;;;;;5045065;28;20186;-64
2024/01/20 02:03:49;;;;;;;19.17;7.07;;;1.10;99.90;;;;;;5060408;28;20057;-64
2024/01/20 02:06:16;;;;;;;15.02;6.85;;;1.20;99.90;;;;;;5060509;28;20059;-65
2024/01/20 02:08:42;;;;;;;15.77;7.10;;;1.40;99.90;;;;;;5060198;28;20516;-65
2024/01/20 02:11:08;;;;;;;15.15;6.55;;;1.00;99.90;;;;;;5061202;28;20044;-65
2024/01/20 02:13:35;;;;;;;17.92;6.85;;;1.80;99.90;;;;;;5059624;28;20375;-65
2024/01/20 02:16:02;;;;;;;14.30;7.18;;;1.70;99.90;;;;;;5060658;28;20037;-66
2024/01/20 02:18:28;;;;;;;18.98;7.20;;;1.00;99.90;;;;;;5060225;28;20041;-65
2024/01/20 02:20:53;;;;;;;15.52;6.82;;;1.00;99.90;;;;;;5045285;28;20154;-65
2024/01/20 02:23:19;;;;;;;19.42;7.65;;;1.00;99.90;;;;;;5062722;28;20202;-65
2024/01/20 02:25:46;;;;;;;15.20;7.53;;;1.00;99.90;;;;;;5063820;28;20041;-65
2024/01/20 02:28:12;;;;;;;15.77;7.35;;;1.00;99.90;;;;;;5047642;28;20078;-65
2024/01/20 02:30:38;;;;;;;20.13;7.63;;;1.00;99.90;;;;;;5064418;28;20404;-65
2024/01/20 02:33:04;;;;;;;18.80;7.95;;;1.00;99.90;;;;;;5063627;28;20060;-65
2024/01/20 02:35:30;;;;;;;16.77;7.78;;;1.00;99.90;;;;;;5063689;28;20076;-65
2024/01/20 02:37:55;;;;;;;20.65;7.72;;;1.00;99.90;;;;;;5095705;28;20036;-65
2024/01/20 02:40:21;;;;;;;14.57;7.78;;;1.10;99.90;;;;;;5063882;28;20500;-65
2024/01/20 02:42:47;;;;;;;20.05;7.82;;;1.00;99.90;;;;;;5064632;28;20119;-65
2024/01/20 02:45:13;;;;;;;17.92;7.53;;;1.00;99.90;;;;;;5061978;28;20549;-65
2024/01/20 02:47:39;;;;;;;17.55;7.45;;;1.00;99.90;;;;;;5063914;28;20190;-65
2024/01/20 02:50:05;;;;;;;16.05;7.85;;;1.90;99.90;;;;;;5047694;28;20040;-65
2024/01/20 02:52:31;;;;;;;18.77;8.65;;;0.90;99.90;;;;;;5064179;28;20052;-65
2024/01/20 02:54:57;;;;;;;21.10;9.50;;;1.80;99.90;;;;;;5047049;28;21817;-64
2024/01/20 02:57:23;;;;;;;18.00;9.45;;;1.00;99.90;;;;;;5064077;28;20052;-64
2024/01/20 02:59:48;;;;;;;19.23;8.85;;;1.00;99.90;;;;;;5063643;28;20052;-64
2024/01/20 03:02:14;;;;;;;17.98;8.93;;;1.00;99.90;;;;;;5064268;28;20056;-65
2024/01/20 03:04:40;;;;;;;18.95;8.85;;;1.00;99.90;;;;;;5063708;28;20114;-65
2024/01/20 03:07:05;;;;;;;19.05;9.75;;;1.00;99.90;;;;;;5063847;28;20503;-65
2024/01/20 03:09:31;;;;;;;21.33;10.68;;;1.00;99.90;;;;;;5063616;28;20059;-64
2024/01/20 03:11:58;;;;;;;17.42;10.35;;;0.90;99.90;;;;;;5047276;28;20110;-64
2024/01/20 03:14:24;;;;;;;29.27;12.13;;;0.90;99.90;;;;;;5075899;28;20050;-65
2024/01/20 03:16:50;;;;;;;18.23;11.35;;;0.90;99.90;;;;;;5064469;28;20493;-64
2024/01/20 03:19:18;;;;;;;24.73;12.32;;;0.90;99.90;;;;;;5062837;28;20591;-64
2024/01/20 03:21:44;;;;;;;23.13;12.38;;;0.90;99.90;;;;;;5064728;28;20515;-64
2024/01/20 03:24:10;;;;;;;26.38;13.70;;;1.30;99.90;;;;;;5062228;28;20124;-64
2024/01/20 03:26:35;;;;;;;26.90;14.35;;;1.00;99.90;;;;;;5063257;28;20048;-65
2024/01/20 03:29:01;;;;;;;23.83;14.57;;;0.90;99.90;;;;;;5062668;28;20127;-65
2024/01/20 03:31:27;;;;;;;23.45;14.23;;;0.80;99.90;;;;;;5062743;28;20406;-65
2024/01/20 03:33:53;;;;;;;25.80;15.27;;;0.80;99.90;;;;;;5045686;28;20188;-65
2024/01/20 03:36:18;;;;;;;30.33;15.88;;;0.80;99.90;;;;;;5064074;28;20452;-65
2024/01/20 03:38:44;;;;;;;28.45;15.35;;;0.80;99.90;;;;;;5063622;28;20063;-64
2024/01/20 03:41:10;;;;;;;25.95;15.07;;;0.80;99.90;;;;;;5046361;28;20155;-65
2024/01/20 03:43:36;;;;;;;26.38;15.18;;;0.80;99.90;;;;;;5062992;28;20044;-65
2024/01/20 03:46:01;;;;;;;30.05;16.08;;;0.80;99.90;;;;;;5062442;28;20052;-64
2024/01/20 03:48:27;;;;;;;26.40;14.95;;;0.80;99.90;;;;;;5064893;28;20040;-64
2024/01/20 03:50:53;;;;;;;28.35;16.77;;;0.70;99.90;;;;;;5062530;28;20066;-65
2024/01/20 03:53:18;;;;;;;30.80;16.10;;;0.70;99.90;;;;;;5062055;28;20412;-65
2024/01/20 03:55:44;;;;;;;29.27;16.23;;;0.70;99.90;;;;;;5063887;28;20040;-64
2024/01/20 03:58:11;;;;;;;32.67;16.40;;;0.80;99.90;;;;;;5062281;28;20044;-65
2024/01/20 04:00:36;;;;;;;32.10;15.80;;;0.70;99.90;;;;;;5062448;28;20428;-64
2024/01/20 04:03:03;;;;;;;32.35;16.23;;;0.70;99.90;;;;;;5060666;28;20062;-65
2024/01/20 04:05:28;;;;;;;28.10;15.52;;;0.70;99.90;;;;;;5063160;28;20040;-68
2024/01/20 04:07:54;;;;;;;29.23;15.80;;;0.70;99.90;;;;;;5063585;28;20036;-68
2024/01/20 04:10:20;;;;;;;26.13;15.70;;;1.50;99.90;;;;;;5063635;28;20052;-68
2024/01/20 04:12:46;;;;;;;25.85;15.80;;;1.00;99.90;;;;;;5046097;28;20052;-67
2024/01/20 04:15:12;;;;;;;27.33;15.25;;;0.60;99.90;;;;;;5062325;28;20040;-69
2024/01/20 04:17:37;;;;;;;31.08;17.17;;;1.30;99.90;;;;;;5062225;28;20507;-68
2024/01/20 04:20:04;;;;;;;27.40;16.33;;;0.80;99.90;;;;;;5061903;28;20045;-68
2024/01/20 04:22:30;;;;;;;28.48;16.58;;;0.60;99.90;;;;;;5062178;28;20405;-68
2024/01/20 04:24:55;;;;;;;30.08;16.63;;;0.60;99.90;;;;;;5061018;28;20045;-68
2024/01/20 04:27:21;;;;;;;28.65;16.13;;;0.60;99.90;;;;;;5045566;28;20072;-68
2024/01/20 04:29:47;;;;;;;31.00;15.77;;;0.60;99.90;;;;;;5045637;28;20136;-68
2024/01/20 04:32:13;;;;;;;26.85;15.35;;;0.60;99.90;;;;;;5061627;28;20489;-68
2024/01/20 04:34:39;;;;;;;30.15;16.30;;;0.60;99.90;;;;;;5061436;28;20093;-67
2024/01/20 04:37:06;;;;;;;26.92;15.05;;;0.60;99.90;;;;;;5061609;28;20161;-67
2024/01/20 04:39:31;;;;;;;31.83;16.10;;;0.60;99.90;;;;;;5062417;28;21220;-67
2024/01/20 04:41:57;;;;;;;29.58;15.77;;;0.60;99.90;;;;;;5064507;28;20041;-68
2024/01/20 04:44:23;;;;;;;31.80;15.82;;;0.60;99.90;;;;;;5058870;28;20501;-68
2024/01/20 04:46:49;;;;;;;28.10;15.57;;;0.60;99.90;;;;;;5060204;28;20104;-67
2024/01/20 04:49:14;;;;;;;28.13;15.50;;;0.60;99.90;;;;;;5060883;28;20620;-67
2024/01/20 04:51:40;;;;;;;30.90;15.68;;;0.70;99.90;;;;;;5062103;28;20093;-67
2024/01/20 04:54:06;;;;;;;30.90;15.15;;;0.90;99.90;;;;;;5061381;28;20056;-68
2024/01/20 04:56:31;;;;;;;28.35;15.95;;;0.60;99.90;;;;;;5062404;28;20486;-68
2024/01/20 04:58:57;;;;;;;35.60;17.55;;;0.50;99.90;;;;;;5042731;28;20066;-67
2024/01/20 05:01:23;;;;;;;31.02;15.75;;;0.50;99.90;;;;;;5062975;28;20048;-67
2024/01/20 05:03:49;;;;;;;30.30;16.45;;;0.50;99.90;;;;;;5060620;28;20595;-67
2024/01/20 05:06:14;;;;;;;31.20;16.67;;;0.90;99.90;;;;;;5044315;28;20044;-67
2024/01/20 05:08:40;;;;;;;34.75;16.45;;;0.50;99.90;;;;;;5062354;28;20699;-67
2024/01/20 05:11:07;;;;;;;29.65;16.30;;;0.60;99.90;;;;;;5062403;28;20367;-67
2024/01/20 05:13:32;;;;;;;31.60;17.13;;;0.70;99.90;;;;;;5062785;28;20036;-67
2024/01/20 05:15:59;;;;;;;26.38;15.13;;;0.50;99.90;;;;;;5060493;28;20048;-67
2024/01/20 05:18:25;;;;;;;29.00;15.88;;;0.50;99.90;;;;;;5062922;28;20568;-67
2024/01/20 05:20:51;;;;;;;31.42;16.30;;;0.50;99.90;;;;;;5044324;28;20036;-67
2024/01/20 05:23:18;;;;;;;30.35;16.65;;;0.50;99.90;;;;;;5060663;28;20044;-67
2024/01/20 05:25:44;;;;;;;30.95;16.65;;;0.50;99.90;;;;;;5057801;28;20047;-67
2024/01/20 05:28:09;;;;;;;33.63;16.10;;;0.50;99.90;;;;;;5060105;28;20398;-67
2024/01/20 05:30:35;;;;;;;33.45;18.00;;;0.40;99.90;;;;;;5061674;28;20476;-68
2024/01/20 05:33:01;;;;;;;29.33;16.50;;;0.40;99.90;;;;;;5059834;28;20048;-67
2024/01/20 05:35:26;;;;;;;28.88;15.93;;;0.40;99.90;;;;;;5061406;28;20076;-68
2024/01/20 05:37:52;;;;;;;33.90;17.38;;;0.40;99.90;;;;;;5063285;28;20048;-68
2024/01/20 05:40:18;;;;;;;32.60;17.17;;;0.40;99.90;;;;;;5062647;28;20052;-67
2024/01/20 05:42:43;;;;;;;33.75;16.65;;;0.70;99.90;;;;;;5059696;28;20142;-67
2024/01/20 05:45:10;;;;;;;32.55;18.13;;;0.70;99.90;;;;;;5060652;28;20158;-67
2024/01/20 05:47:36;;;;;;;32.38;16.85;;;0.30;99.90;;;;;;5060466;28;20163;-68
2024/01/20 05:50:05;;;;;;;35.03;17.05;;;0.30;99.90;;;;;;5061197;28;20135;-67
2024/01/20 05:52:31;;;;;;;31.45;16.52;;;0.30;99.90;;;;;;5061044;28;20162;-64
2024/01/20 05:54:57;;;;;;;36.72;19.05;;;0.30;99.90;;;;;;5060657;28;20441;-65
2024/01/20 05:57:23;;;;;;;33.65;18.83;;;0.20;99.90;;;;;;5060799;28;20048;-65
2024/01/20 05:59:49;;;;;;;37.08;17.92;;;0.20;99.90;;;;;;5063517;28;20044;-65
2024/01/20 06:02:15;;;;;;;35.50;16.55;;;0.60;99.90;;;;;;5047556;28;20044;-64
2024/01/20 06:04:41;;;;;;;27.98;16.73;;;0.20;99.90;;;;;;5063381;28;20052;-64
2024/01/20 06:07:06;;;;;;;32.22;17.98;;;0.50;99.90;;;;;;5063562;28;20197;-65
2024/01/20 06:09:32;;;;;;;37.00;17.90;;;0.10;99.90;;;;;;5065314;28;20048;-65
2024/01/20 06:11:58;;;;;;;32.25;15.77;;;0.10;99.90;;;;;;5064677;28;20037;-65
2024/01/20 06:14:23;;;;;;;36.35;18.08;;;0.10;99.90;;;;;;5063219;28;20197;-64
2024/01/20 06:16:49;;;;;;;35.05;16.70;;;0.10;99.90;;;;;;5057177;28;20075;-66
2024/01/20 06:19:15;;;;;;;32.58;17.38;;;0.10;99.90;;;;;;5064062;28;20398;-65
2024/01/20 06:21:40;;;;;;;36.65;18.25;;;0.10;99.90;;;;;;5064463;28;20044;-65
2024/01/20 06:24:07;;;;;;;37.03;17.45;;;0.10;99.90;;;;;;5063921;28;20198;-65
2024/01/20 06:26:33;;;;;;;34.55;17.45;;;0.10;99.90;;;;;;5064253;28;20044;-65
2024/01/20 06:28:59;;;;;;;35.90;17.88;;;0.10;99.90;;;;;;5046169;28;20037;-65
2024/01/20 06:31:27;;;;;;;34.15;16.95;;;0.10;99.90;;;;;;5066081;28;20516;-65
2024/01/20 06:33:53;;;;;;;33.53;18.05;;;0.10;99.90;;;;;;5047246;28;20089;-65
2024/01/20 06:36:26;;;;;;;40.55;18.30;;;0.00;99.90;;;;;;5063718;28;20040;-65
2024/01/20 06:38:52;;;;;;;41.92;17.90;;;0.00;99.90;;;;;;5063156;28;20059;-64
2024/01/20 06:41:18;;;;;;;35.42;17.80;;;0.00;99.90;;;;;;5063518;28;20095;-65
2024/01/20 06:43:44;;;;;;;30.85;16.65;;;0.00;99.90;;;;;;5063973;28;20083;-65
2024/01/20 06:46:09;;;;;;;35.08;16.05;;;0.00;99.90;;;;;;5062740;28;20139;-65
2024/01/20 06:48:35;;;;;;;32.47;16.38;;;0.90;99.90;;;;;;5065377;28;20534;-65
2024/01/20 06:51:03;;;;;;;35.47;17.90;;;0.00;99.90;;;;;;5063838;28;20037;-65
2024/01/20 06:53:29;;;;;;;32.83;16.15;;;0.00;99.90;;;;;;5063757;28;20127;-65
2024/01/20 06:55:55;;;;;;;37.22;16.73;;;0.00;99.90;;;;;;5062287;28;20554;-65
2024/01/20 06:58:21;;;;;;;31.30;17.17;;;0.40;99.90;;;;;;5045357;28;20921;-65
2024/01/20 07:00:47;;;;;;;35.50;18.92;;;0.00;99.90;;;;;;5062562;28;20044;-65
2024/01/20 07:03:13;;;;;;;35.85;16.77;;;-0.10;99.90;;;;;;5065445;28;20451;-65
2024/01/20 07:05:39;;;;;;;37.60;17.83;;;0.00;99.90;;;;;;5065030;28;20057;-65
2024/01/20 07:08:05;;;;;;;38.92;18.10;;;0.80;99.90;;;;;;5064400;28;20134;-65
2024/01/20 07:10:31;;;;;;;30.02;17.08;;;-0.10;99.90;;;;;;5064595;28;20056;-65
2024/01/20 07:12:57;;;;;;;41.30;20.17;;;1.10;99.90;;;;;;5046771;28;20044;-65
2024/01/20 07:15:23;;;;;;;37.95;17.70;;;-0.10;99.90;;;;;;5056166;28;20130;-65
2024/01/20 07:17:48;;;;;;;36.72;18.70;;;-0.10;99.90;;;;;;5061242;28;20075;-65
2024/01/20 07:20:15;;;;;;;43.45;20.05;;;-0.10;99.90;;;;;;5044374;28;20121;-65
2024/01/20 07:22:41;;;;;;;40.90;19.40;;;-0.10;99.90;;;;;;5063348;28;20371;-65
2024/01/20 07:25:08;;;;;;;35.28;18.85;;;-0.10;99.90;;;;;;5060719;28;20044;-65
2024/01/20 07:27:34;;;;;;;45.72;20.83;;;-0.10;99.90;;;;;;5063306;28;20459;-65
2024/01/20 07:30:00;;;;;;;43.08;20.45;;;-0.10;99.90;;;;;;5060467;28;20093;-65
2024/01/20 07:32:26;;;;;;;42.05;20.05;;;-0.10;99.90;;;;;;5063282;28;20477;-66
2024/01/20 07:34:52;;;;;;;40.70;19.02;;;-0.10;99.90;;;;;;5062323;28;20079;-65
2024/01/20 07:37:18;;;;;;;42.22;20.02;;;-0.10;99.90;;;;;;5061875;28;20024;-65
2024/01/20 07:39:43;;;;;;;46.60;19.58;;;-0.10;99.90;;;;;;5062728;28;20405;-64
2024/01/20 07:42:10;;;;;;;44.17;20.73;;;-0.10;99.90;;;;;;5063606;28;20099;-65
2024/01/20 07:44:36;;;;;;;43.67;19.98;;;0.10;99.90;;;;;;5047700;28;20063;-65
2024/01/20 07:47:02;;;;;;;42.65;19.83;;;0.00;99.90;;;;;;5057052;28;20040;-65
2024/01/20 07:49:28;;;;;;;45.35;20.00;;;0.00;99.90;;;;;;5085412;28;20048;-65
2024/01/20 07:51:54;;;;;;;43.30;20.13;;;-0.10;99.90;;;;;;5038534;28;20052;-64
2024/01/20 07:54:19;;;;;;;41.03;20.10;;;-0.10;99.90;;;;;;5058138;28;20036;-65
2024/01/20 07:56:45;;;;;;;46.42;20.20;;;-0.10;99.90;;;;;;5061814;28;20070;-65
2024/01/20 07:59:11;;;;;;;39.03;19.35;;;-0.10;99.90;;;;;;5054743;28;20187;-66
2024/01/20 08:01:37;;;;;;;41.67;19.98;;;0.10;99.90;;;;;;5035074;28;20060;-65
2024/01/20 08:04:03;;;;;;;44.20;21.58;;;0.00;99.90;;;;;;5053019;28;20063;-65
2024/01/20 08:06:29;;;;;;;41.70;20.77;;;0.00;99.90;;;;;;5052825;28;20093;-65
2024/01/20 08:08:54;;;;;;;41.00;20.52;;;0.20;99.90;;;;;;5050759;28;20040;-65
2024/01/20 08:11:23;;;;;;;38.70;20.58;;;0.00;99.90;;;;;;5052106;28;20051;-64
2024/01/20 08:13:49;;;;;;;41.80;21.13;;;0.00;99.90;;;;;;5054775;28;20397;-65
2024/01/20 08:16:14;;;;;;;42.45;20.30;;;0.10;99.90;;;;;;5052998;28;20044;-65
2024/01/20 08:18:41;;;;;;;40.75;20.33;;;0.00;99.90;;;;;;5053295;28;20040;-65
2024/01/20 08:21:07;;;;;;;41.85;20.35;;;0.00;99.90;;;;;;5059350;28;20604;-65
2024/01/20 08:23:33;;;;;;;41.20;20.73;;;0.10;99.90;;;;;;5051988;28;20060;-65
2024/01/20 08:26:00;;;;;;;39.95;19.65;;;0.10;99.90;;;;;;5049811;28;20048;-65
2024/01/20 08:28:25;;;;;;;40.33;20.83;;;0.10;99.90;;;;;;5056917;28;20079;-65
2024/01/20 08:30:52;;;;;;;40.40;20.15;;;0.40;99.90;;;;;;5055226;28;20040;-67
2024/01/20 08:33:17;;;;;;;45.97;22.20;;;1.30;99.90;;;;;;5056878;28;20444;-65
2024/01/20 08:35:43;;;;;;;44.00;20.65;;;0.10;99.90;;;;;;5054820;28;20043;-65
2024/01/20 08:38:09;;;;;;;42.40;20.55;;;0.20;99.90;;;;;;5053095;28;20739;-66
2024/01/20 08:40:34;;;;;;;43.50;20.88;;;0.90;99.90;;;;;;5041421;28;20485;-65
2024/01/20 08:43:00;;;;;;;48.53;21.60;;;0.30;99.90;;;;;;5055592;28;20148;-65
2024/01/20 08:45:26;;;;;;;41.70;21.63;;;0.30;99.90;;;;;;5039421;28;20135;-65
2024/01/20 08:47:51;;;;;;;44.45;21.67;;;0.30;99.90;;;;;;5057613;28;20045;-65
2024/01/20 08:50:17;;;;;;;41.97;20.98;;;0.30;99.90;;;;;;5057116;28;20127;-65
2024/01/20 08:52:43;;;;;;;43.75;21.63;;;0.30;99.90;;;;;;5053241;28;20102;-64
2024/01/20 08:55:08;;;;;;;45.13;21.50;;;0.30;99.90;;;;;;5039350;28;20067;-65
2024/01/20 08:57:35;;;;;;;41.65;20.50;;;0.40;99.90;;;;;;5055775;28;20540;-65
2024/01/20 09:00:03;;;;;;;41.10;19.75;;;0.30;99.90;;;;;;5054273;28;20072;-65
2024/01/20 09:02:28;;;;;;;44.45;22.13;;;0.40;99.90;;;;;;5057495;28;20052;-65
2024/01/20 09:04:54;;;;;;;42.40;21.33;;;0.30;99.90;;;;;;5056528;28;20032;-65
2024/01/20 09:07:23;;;;;;;45.25;20.80;;;0.40;99.90;;;;;;5055953;28;20036;-65
2024/01/20 09:09:48;;;;;;;45.55;20.95;;;0.50;99.90;;;;;;5052532;28;20113;-65
2024/01/20 09:12:14;;;;;;;40.63;20.50;;;0.80;99.90;;;;;;5046484;28;20123;-65
2024/01/20 09:14:40;;;;;;;43.67;20.80;;;1.00;99.90;;;;;;5054850;28;20055;-66
2024/01/20 09:17:06;;;;;;;43.88;21.70;;;0.40;99.90;;;;;;5053579;28;20052;-65
2024/01/20 09:19:32;;;;;;;47.25;21.38;;;0.50;99.90;;;;;;5044563;28;20555;-65
2024/01/20 09:21:58;;;;;;;44.60;19.63;;;1.60;99.90;;;;;;5047173;28;20044;-65
2024/01/20 09:24:23;;;;;;;43.65;21.80;;;0.50;99.90;;;;;;5050528;28;20033;-64
2024/01/20 09:26:49;;;;;;;39.40;19.85;;;0.50;99.90;;;;;;5054173;28;20055;-65
2024/01/20 09:29:15;;;;;;;44.53;20.70;;;0.50;99.90;;;;;;5056337;28;20413;-65
2024/01/20 09:31:40;;;;;;;39.17;19.83;;;0.60;99.90;;;;;;5039708;28;20083;-65
2024/01/20 09:34:06;;;;;;;42.65;21.83;;;0.60;99.90;;;;;;5016921;28;20123;-67
2024/01/20 09:36:32;;;;;;;44.15;19.27;;;0.60;99.90;;;;;;5031553;28;20055;-65
2024/01/20 09:38:58;;;;;;;41.60;20.15;;;0.60;99.90;;;;;;5036649;28;20040;-65
2024/01/20 09:41:24;;;;;;;41.40;21.00;;;0.60;99.90;;;;;;5025623;28;20044;-65
2024/01/20 09:43:51;;;;;;;39.50;20.13;;;0.80;99.90;;;;;;5037526;28;20048;-65
2024/01/20 09:46:17;;;;;;;48.00;21.48;;;0.60;99.90;;;;;;5044364;28;20075;-65
2024/01/20 09:48:44;;;;;;;41.95;19.65;;;0.70;99.90;;;;;;5041758;28;20041;-65
2024/01/20 09:51:10;;;;;;;40.97;19.73;;;0.70;99.90;;;;;;5047851;28;20110;-65
2024/01/20 09:53:38;;;;;;;39.00;18.75;;;0.70;99.90;;;;;;5046284;28;20447;-65
2024/01/20 09:56:04;;;;;;;40.63;18.85;;;0.70;99.90;;;;;;5031948;28;20045;-65
2024/01/20 09:58:33;;;;;;;42.78;19.42;;;0.70;99.90;;;;;;5039000;28;20451;-65
2024/01/20 10:00:59;;;;;;;38.22;19.25;;;0.70;99.90;;;;;;5057390;28;20044;-66
2024/01/20 10:03:28;;;;;;;38.13;19.08;;;0.70;99.90;;;;;;5043775;28;20048;-65
2024/01/20 10:05:54;;;;;;;37.22;18.75;;;0.80;99.90;;;;;;5051556;28;20838;-65
2024/01/20 10:08:19;;;;;;;43.53;18.42;;;0.80;99.90;;;;;;5044371;28;20045;-65
2024/01/20 10:10:45;;;;;;;40.70;19.38;;;0.80;99.90;;;;;;5056763;28;20052;-65
2024/01/20 10:13:13;;;;;;;43.30;18.63;;;0.80;99.90;;;;;;5033678;28;20052;-65
2024/01/20 10:15:39;;;;;;;43.28;19.27;;;0.80;99.90;;;;;;5040354;28;20049;-65
2024/01/20 10:18:10;;;;;;;44.42;19.65;;;0.80;99.90;;;;;;5029597;28;20041;-64
2024/01/20 10:20:37;;;;;;;40.45;18.52;;;0.90;99.90;;;;;;5048711;28;20053;-64
2024/01/20 10:23:04;;;;;;;38.17;17.75;;;0.90;99.90;;;;;;5047376;28;20135;-65
2024/01/20 10:25:30;;;;;;;39.50;17.17;;;0.90;99.90;;;;;;5055513;28;20189;-65
2024/01/20 10:27:56;;;;;;;38.22;19.02;;;0.90;99.90;;;;;;5042177;28;20517;-65
2024/01/20 10:30:23;;;;;;;37.25;18.33;;;0.90;99.90;;;;;;5052540;28;20040;-67
2024/01/20 10:32:49;;;;;;;40.65;18.73;;;1.40;99.90;;;;;;5059358;28;20051;-68
2024/01/20 10:35:15;;;;;;;39.13;18.60;;;1.00;99.90;;;;;;5052825;28;20763;-67
2024/01/20 10:37:46;;;;;;;39.42;19.17;;;1.00;99.90;;;;;;5047903;28;20052;-67
2024/01/20 10:40:13;;;;;;;39.92;16.77;;;1.00;99.90;;;;;;5058432;28;20055;-67
2024/01/20 10:42:44;;;;;;;38.00;17.33;;;1.00;99.90;;;;;;5054205;28;20059;-68
2024/01/20 10:45:18;;;;;;;35.70;15.82;;;1.10;99.90;;;;;;5044116;28;20052;-68
2024/01/20 10:47:59;;;;;;;35.58;16.75;;;1.10;99.90;;;;;;5055885;28;20527;-67
2024/01/20 10:50:26;;;;;;;38.67;17.98;;;1.10;99.90;;;;;;5091316;28;20114;-68
2024/01/20 10:52:52;;;;;;;37.63;18.20;;;1.10;99.90;;;;;;5053153;28;20503;-68
2024/01/20 10:55:19;;;;;;;39.25;17.73;;;1.10;99.90;;;;;;5038976;28;20041;-68
2024/01/20 10:57:48;;;;;;;34.63;17.20;;;1.10;99.90;;;;;;5041119;28;20129;-68
2024/01/20 11:00:15;;;;;;;39.35;16.42;;;1.20;99.90;;;;;;5052846;28;20044;-68
2024/01/20 11:02:42;;;;;;;40.30;17.35;;;1.20;99.90;;;;;;5051586;28;20053;-68
2024/01/20 11:05:20;;;;;;;36.75;17.25;;;1.20;99.90;;;;;;5091171;28;20131;-68
2024/01/20 11:08:04;;;;;;;37.60;16.95;;;1.20;99.90;;;;;;5055707;28;20437;-68
2024/01/20 11:10:37;;;;;;;33.38;16.33;;;1.30;99.90;;;;;;5049400;28;20041;-68
2024/01/20 11:13:07;;;;;;;40.63;17.70;;;1.30;99.90;;;;;;5057503;28;20434;-67
2024/01/20 11:15:34;;;;;;;38.45;17.77;;;1.70;99.90;;;;;;5086327;28;20067;-68
2024/01/20 11:18:00;;;;;;;34.80;16.05;;;1.30;99.90;;;;;;5087318;28;20047;-68
2024/01/20 11:20:27;;;;;;;39.28;18.30;;;1.50;99.90;;;;;;5051892;28;20048;-67
2024/01/20 11:22:55;;;;;;;39.63;19.23;;;1.40;99.90;;;;;;5057662;28;20060;-68
2024/01/20 11:25:24;;;;;;;41.88;18.00;;;1.40;99.90;;;;;;5055575;28;20225;-68
2024/01/20 11:27:57;;;;;;;41.75;18.63;;;1.70;99.90;;;;;;5056729;28;20452;-68
2024/01/20 11:30:43;;;;;;;41.95;19.00;;;1.40;99.90;;;;;;5054933;28;20048;-68
2024/01/20 11:33:11;;;;;;;37.95;17.85;;;1.40;99.90;;;;;;5069866;28;20140;-68
2024/01/20 11:35:37;;;;;;;39.30;20.35;;;1.40;99.90;;;;;;5056540;28;20110;-68
2024/01/20 11:38:04;;;;;;;43.13;18.92;;;1.50;99.90;;;;;;5040976;28;20517;-68
2024/01/20 11:40:30;;;;;;;41.80;19.50;;;1.50;99.90;;;;;;5055235;28;20045;-68
2024/01/20 11:43:06;;;;;;;44.97;19.38;;;2.00;99.90;;;;;;5059195;28;20431;-68
2024/01/20 11:45:32;;;;;;;42.40;20.73;;;1.50;99.90;;;;;;5054676;28;20075;-69
2024/01/20 11:47:59;;;;;;;42.40;21.15;;;1.60;99.90;;;;;;5043031;28;20403;-69
2024/01/20 11:50:24;;;;;;;42.70;20.30;;;1.70;99.90;;;;;;5058404;28;20040;-69
2024/01/20 11:52:53;;;;;;;41.40;20.70;;;1.50;99.90;;;;;;5058375;28;20040;-69
2024/01/20 11:55:18;;;;;;;50.33;22.35;;;1.50;99.90;;;;;;5055316;28;20078;-66
2024/01/20 11:57:44;;;;;;;45.92;20.98;;;1.50;99.90;;;;;;5053703;28;20132;-65
2024/01/20 12:00:11;;;;;;;49.03;22.17;;;2.50;99.90;;;;;;5056241;28;20052;-66
2024/01/20 12:02:37;;;;;;;46.78;22.85;;;1.60;99.90;;;;;;5054424;28;20088;-65
2024/01/20 12:05:04;;;;;;;49.78;22.88;;;1.60;99.90;;;;;;5042232;28;20601;-67
2024/01/20 12:07:29;;;;;;;44.80;22.73;;;1.60;99.90;;;;;;5081843;28;20048;-66
2024/01/20 12:09:56;;;;;;;45.50;21.85;;;1.60;99.90;;;;;;5038080;28;20090;-66
2024/01/20 12:12:22;;;;;;;48.33;21.92;;;1.70;99.90;;;;;;5050841;28;20155;-66
2024/01/20 12:14:49;;;;;;;43.03;21.58;;;1.70;99.90;;;;;;5052988;28;20123;-65
2024/01/20 12:17:15;;;;;;;45.20;22.17;;;1.70;99.90;;;;;;5055018;28;20041;-66
2024/01/20 12:19:41;;;;;;;40.75;21.08;;;1.70;99.90;;;;;;5038878;28;20134;-65
2024/01/20 12:22:09;;;;;;;42.15;20.08;;;1.70;99.90;;;;;;5045503;28;20119;-65
2024/01/20 12:24:38;;;;;;;43.15;21.35;;;1.70;99.90;;;;;;5037111;28;20053;-66
2024/01/20 12:27:04;;;;;;;44.88;21.70;;;1.80;99.90;;;;;;5035828;28;20080;-65
2024/01/20 12:29:32;;;;;;;40.85;21.13;;;1.80;99.90;;;;;;5031342;28;20064;-66
2024/01/20 12:31:59;;;;;;;49.17;22.08;;;1.90;99.90;;;;;;5015202;28;20040;-66
2024/01/20 12:34:25;;;;;;;42.47;21.33;;;1.80;99.90;;;;;;5033546;28;20804;-66